createdAt,value
2023-04-23T00:01:43.004Z,2.50
2023-04-23T00:04:12.742Z,2.72
2023-04-23T00:06:42.301Z,2.92
2023-04-23T00:09:12.945Z,2.80
2023-04-23T00:11:41.017Z,2.90
2023-04-23T00:14:08.819Z,2.63
2023-04-23T00:16:36.590Z,2.40
2023-04-23T00:19:04.178Z,2.30
2023-04-23T00:21:32.048Z,2.67
2023-04-23T00:23:59.430Z,2.42
2023-04-23T00:26:26.917Z,2.38
2023-04-23T00:28:54.547Z,2.50
2023-04-23T00:31:23.176Z,2.03
2023-04-23T00:33:51.006Z,1.98
2023-04-23T00:36:18.759Z,2.58
2023-04-23T00:38:46.205Z,2.15
2023-04-23T00:41:14.024Z,2.42
2023-04-23T00:43:41.762Z,2.38
2023-04-23T00:46:09.560Z,1.92
2023-04-23T00:48:37.609Z,2.08
2023-04-23T00:51:06.930Z,1.83
2023-04-23T00:53:35.378Z,1.98
2023-04-23T00:56:05.800Z,1.70
2023-04-23T00:58:33.845Z,2.00
2023-04-23T01:01:04.728Z,2.13
2023-04-23T01:03:33.190Z,2.35
2023-04-23T01:06:01.241Z,1.85
2023-04-23T01:08:29.718Z,2.42
2023-04-23T01:10:58.239Z,2.10
2023-04-23T01:13:29.879Z,2.88
2023-04-23T01:15:57.937Z,2.33
2023-04-23T01:18:25.609Z,2.20
2023-04-23T01:20:53.850Z,2.35
2023-04-23T01:23:21.971Z,2.35
2023-04-23T01:25:49.949Z,2.70
2023-04-23T01:28:17.973Z,2.80
2023-04-23T01:30:47.014Z,3.85
2023-04-23T01:33:16.643Z,3.20
2023-04-23T01:35:45.590Z,3.03
2023-04-23T01:38:15.095Z,2.95
2023-04-23T01:40:43.110Z,3.20
2023-04-23T01:43:11.356Z,3.00
2023-04-23T01:45:39.129Z,2.80
2023-04-23T01:48:08.094Z,3.08
2023-04-23T01:50:36.596Z,3.13
2023-04-23T01:53:04.072Z,3.60
2023-04-23T01:55:32.360Z,3.25
2023-04-23T01:57:59.884Z,3.65
2023-04-23T02:00:27.321Z,3.60
2023-04-23T02:02:55.059Z,3.78
2023-04-23T02:05:23.108Z,3.85
2023-04-23T02:07:52.511Z,3.47
2023-04-23T02:10:20.971Z,4.07
2023-04-23T02:12:48.722Z,3.78
2023-04-23T02:15:16.973Z,3.53
2023-04-23T02:17:44.721Z,3.85
2023-04-23T02:20:13.147Z,4.38
2023-04-23T02:22:42.552Z,4.15
2023-04-23T02:25:10.991Z,4.70
2023-04-23T02:27:38.567Z,5.65
2023-04-23T02:30:08.696Z,5.47
2023-04-23T02:32:37.666Z,5.60
2023-04-23T02:35:07.021Z,7.53
2023-04-23T02:37:35.256Z,5.47
2023-04-23T02:40:05.204Z,4.90
2023-04-23T02:42:32.829Z,4.50
2023-04-23T02:45:00.437Z,4.75
2023-04-23T02:47:27.981Z,4.15
2023-04-23T02:49:55.485Z,4.50
2023-04-23T02:52:23.041Z,4.22
2023-04-23T02:54:50.577Z,3.85
2023-04-23T02:57:18.206Z,3.67
2023-04-23T02:59:45.803Z,3.65
2023-04-23T03:02:16.910Z,4.00
2023-04-23T03:04:44.877Z,4.20
2023-04-23T03:07:13.705Z,4.22
2023-04-23T03:09:42.609Z,3.67
2023-04-23T03:12:10.140Z,3.88
2023-04-23T03:14:37.854Z,4.35
2023-04-23T03:17:05.614Z,4.28
2023-04-23T03:19:33.732Z,3.35
2023-04-23T03:22:03.968Z,3.70
2023-04-23T03:24:34.143Z,3.40
2023-04-23T03:27:10.733Z,3.40
2023-04-23T03:29:38.312Z,3.10
2023-04-23T03:32:11.913Z,3.38
2023-04-23T03:34:39.723Z,2.58
2023-04-23T03:37:10.474Z,2.60
2023-04-23T03:39:39.504Z,2.60
2023-04-23T03:42:10.948Z,2.72
2023-04-23T03:44:40.224Z,2.40
2023-04-23T03:47:08.450Z,2.78
2023-04-23T03:49:36.769Z,2.38
2023-04-23T03:52:04.467Z,2.47
2023-04-23T03:54:33.591Z,2.28
2023-04-23T03:57:22.010Z,2.40
2023-04-23T03:59:59.389Z,2.50
2023-04-23T04:02:27.267Z,2.63
2023-04-23T04:04:55.485Z,2.97
2023-04-23T04:07:25.064Z,2.90
2023-04-23T04:09:55.862Z,2.70
2023-04-23T04:12:30.107Z,2.70
2023-04-23T04:14:57.658Z,3.08
2023-04-23T04:17:25.553Z,3.28
2023-04-23T04:19:53.104Z,3.03
2023-04-23T04:22:20.948Z,3.50
2023-04-23T04:24:48.578Z,3.08
2023-04-23T04:27:16.517Z,3.03
2023-04-23T04:29:44.331Z,3.25
2023-04-23T04:32:17.842Z,3.05
2023-04-23T04:34:45.452Z,3.03
2023-04-23T04:37:13.184Z,3.25
2023-04-23T04:39:41.030Z,3.08
2023-04-23T04:42:08.578Z,3.30
2023-04-23T04:44:39.944Z,3.55
2023-04-23T04:47:10.185Z,3.80
2023-04-23T04:49:38.558Z,3.60
2023-04-23T04:52:06.700Z,3.47
2023-04-23T04:54:34.235Z,3.53
2023-04-23T04:57:02.663Z,3.38
2023-04-23T04:59:30.198Z,3.15
2023-04-23T05:01:57.807Z,3.00
2023-04-23T05:04:25.598Z,3.45
2023-04-23T05:06:53.191Z,3.03
2023-04-23T05:09:21.045Z,3.60
2023-04-23T05:11:48.881Z,3.28
2023-04-23T05:14:16.402Z,2.90
2023-04-23T05:16:43.918Z,3.03
2023-04-23T05:19:11.485Z,3.40
2023-04-23T05:21:39.072Z,3.35
2023-04-23T05:24:08.043Z,3.42
2023-04-23T05:26:35.548Z,3.67
2023-04-23T05:29:03.029Z,3.42
2023-04-23T05:31:30.637Z,3.90
2023-04-23T05:33:58.303Z,4.47
2023-04-23T05:36:29.049Z,4.78
2023-04-23T05:38:56.663Z,4.38
2023-04-23T05:41:24.264Z,4.20
2023-04-23T05:43:51.816Z,4.45
2023-04-23T05:46:19.638Z,4.40
2023-04-23T05:48:47.111Z,4.80
2023-04-23T05:51:14.539Z,4.15
2023-04-23T05:53:42.028Z,3.90
2023-04-23T05:56:09.526Z,3.60
2023-04-23T05:58:39.099Z,3.90
2023-04-23T06:01:06.853Z,3.65
2023-04-23T06:03:35.243Z,3.65
2023-04-23T06:06:02.975Z,3.83
2023-04-23T06:08:30.634Z,4.05
2023-04-23T06:10:58.631Z,4.35
2023-04-23T06:13:26.859Z,4.38
2023-04-23T06:15:57.343Z,4.47
2023-04-23T06:18:25.338Z,4.88
2023-04-23T06:20:52.910Z,4.32
2023-04-23T06:23:20.338Z,5.47
2023-04-23T06:25:47.824Z,5.43
2023-04-23T06:28:16.317Z,4.93
2023-04-23T06:31:02.913Z,4.95
2023-04-23T06:33:30.547Z,5.25
2023-04-23T06:35:59.358Z,4.90
2023-04-23T06:38:29.384Z,5.15
2023-04-23T06:40:57.290Z,4.75
2023-04-23T06:43:24.901Z,5.55
2023-04-23T06:46:10.692Z,6.78
2023-04-23T06:48:38.275Z,8.68
2023-04-23T06:51:06.507Z,7.90
2023-04-23T06:53:34.536Z,8.25
2023-04-23T06:56:02.064Z,6.97
2023-04-23T06:58:32.551Z,6.63
2023-04-23T07:01:05.701Z,5.78
2023-04-23T07:03:34.819Z,5.97
2023-04-23T07:06:02.379Z,5.95
2023-04-23T07:08:29.960Z,4.78
2023-04-23T07:10:57.477Z,5.60
2023-04-23T07:13:25.122Z,4.90
2023-04-23T07:15:52.618Z,5.65
2023-04-23T07:18:20.198Z,5.03
2023-04-23T07:20:47.798Z,5.65
2023-04-23T07:23:15.298Z,4.30
2023-04-23T07:25:42.766Z,3.47
2023-04-23T07:28:10.214Z,4.10
2023-04-23T07:30:37.901Z,3.80
2023-04-23T07:33:05.413Z,3.90
2023-04-23T07:35:32.959Z,5.00
2023-04-23T07:38:00.384Z,5.60
2023-04-23T07:40:27.960Z,5.57
2023-04-23T07:42:55.882Z,5.90
2023-04-23T07:45:23.304Z,5.85
2023-04-23T07:47:51.121Z,5.35
2023-04-23T07:50:18.785Z,4.75
2023-04-23T07:52:46.258Z,3.83
2023-04-23T07:55:13.706Z,2.40
2023-04-23T07:57:41.454Z,1.98
2023-04-23T08:00:09.701Z,1.92
2023-04-23T08:02:39.862Z,2.08
2023-04-23T08:05:07.816Z,2.70
2023-04-23T08:07:35.612Z,1.92
2023-04-23T08:10:07.439Z,1.77
2023-04-23T08:12:36.215Z,2.60
2023-04-23T08:15:04.654Z,2.38
2023-04-23T08:17:39.122Z,2.40
2023-04-23T08:20:11.274Z,2.80
2023-04-23T08:22:38.771Z,2.30
2023-04-23T08:25:06.807Z,2.70
2023-04-23T08:27:34.738Z,2.40
2023-04-23T08:30:02.228Z,2.95
2023-04-23T08:32:31.374Z,3.20
2023-04-23T08:34:59.266Z,3.55
2023-04-23T08:37:30.717Z,3.65
2023-04-23T08:39:59.425Z,3.65
2023-04-23T08:42:53.298Z,3.28
2023-04-23T08:45:22.155Z,3.25
2023-04-23T08:47:49.720Z,2.75
2023-04-23T08:50:19.040Z,3.25
2023-04-23T08:52:57.188Z,2.80
2023-04-23T08:55:25.663Z,3.22
2023-04-23T08:57:53.599Z,3.70
2023-04-23T09:00:23.457Z,3.88
2023-04-23T09:02:51.148Z,4.25
2023-04-23T09:05:19.034Z,4.45
2023-04-23T09:07:46.524Z,4.50
2023-04-23T09:10:17.756Z,4.30
2023-04-23T09:12:48.426Z,4.50
2023-04-23T09:15:16.020Z,4.80
2023-04-23T09:17:46.557Z,4.50
2023-04-23T09:20:15.577Z,4.30
2023-04-23T09:22:47.343Z,5.03
2023-04-23T09:25:25.054Z,5.35
2023-04-23T09:27:53.568Z,6.03
2023-04-23T09:30:21.155Z,5.50
2023-04-23T09:32:49.884Z,5.32
2023-04-23T09:35:20.154Z,6.00
2023-04-23T09:37:53.336Z,5.47
2023-04-23T09:40:24.147Z,5.32
2023-04-23T09:42:56.220Z,5.00
2023-04-23T09:45:26.103Z,6.05
2023-04-23T09:47:55.981Z,5.63
2023-04-23T09:50:35.119Z,4.97
2023-04-23T09:53:03.280Z,5.38
2023-04-23T09:55:43.325Z,4.50
2023-04-23T09:58:15.956Z,4.50
2023-04-23T10:00:43.795Z,4.80
2023-04-23T10:03:12.479Z,5.20
2023-04-23T10:06:00.317Z,5.13
2023-04-23T10:08:29.782Z,4.20
2023-04-23T10:11:03.096Z,4.80
2023-04-23T10:13:42.511Z,4.45
2023-04-23T10:16:21.676Z,4.40
2023-04-23T10:18:53.452Z,3.83
2023-04-23T10:21:27.033Z,4.07
2023-04-23T10:26:25.078Z,4.22
2023-04-23T10:28:55.319Z,3.92
2023-04-23T10:31:24.031Z,4.38
2023-04-23T10:33:58.919Z,4.25
2023-04-23T10:36:28.217Z,4.35
2023-04-23T10:39:00.493Z,4.28
2023-04-23T10:43:59.244Z,3.75
2023-04-23T10:46:34.834Z,4.05
2023-04-23T10:49:16.792Z,3.70
2023-04-23T10:54:20.178Z,3.83
2023-04-23T10:56:59.554Z,3.50
2023-04-23T10:59:30.096Z,3.65
2023-04-23T11:01:59.911Z,4.28
2023-04-23T11:04:31.370Z,3.88
2023-04-23T11:07:06.471Z,4.07
2023-04-23T11:09:43.009Z,4.00
2023-04-23T11:12:26.175Z,4.05
2023-04-23T11:14:57.455Z,4.55
2023-04-23T11:17:45.263Z,3.92
2023-04-23T11:20:21.108Z,4.30
2023-04-23T11:22:53.442Z,4.30
2023-04-23T11:25:25.390Z,4.28
2023-04-23T11:27:55.505Z,3.30
2023-04-23T11:30:28.391Z,4.25
2023-04-23T11:32:57.325Z,3.80
2023-04-23T11:35:30.799Z,3.90
2023-04-23T11:37:58.321Z,4.05
2023-04-23T11:40:26.056Z,3.65
2023-04-23T11:42:57.943Z,3.55
2023-04-23T11:45:27.343Z,3.92
2023-04-23T11:47:57.671Z,4.18
2023-04-23T11:50:28.179Z,3.63
2023-04-23T11:52:55.776Z,3.53
2023-04-23T11:55:23.625Z,3.80
2023-04-23T11:57:52.931Z,4.05
2023-04-23T12:00:22.170Z,3.63
2023-04-23T12:03:00.806Z,3.40
2023-04-23T12:05:35.495Z,3.08
2023-04-23T12:08:10.684Z,3.20
2023-04-23T12:10:49.796Z,3.25
2023-04-23T12:13:19.203Z,3.03
2023-04-23T12:15:50.411Z,3.70
2023-04-23T12:18:18.615Z,3.55
2023-04-23T12:20:46.701Z,3.20
2023-04-23T12:23:14.234Z,3.10
2023-04-23T12:25:42.720Z,3.47
2023-04-23T12:28:10.401Z,3.30
2023-04-23T12:30:44.381Z,3.28
2023-04-23T12:33:13.594Z,2.92
2023-04-23T12:35:49.790Z,3.00
2023-04-23T12:38:27.979Z,3.20
2023-04-23T12:40:59.754Z,2.88
2023-04-23T12:43:27.679Z,3.40
2023-04-23T12:45:56.868Z,3.30
2023-04-23T12:48:24.357Z,3.08
2023-04-23T12:50:51.929Z,2.85
2023-04-23T12:53:19.791Z,3.17
2023-04-23T12:55:48.693Z,2.78
2023-04-23T12:58:16.152Z,2.70
2023-04-23T13:00:43.631Z,2.42
2023-04-23T13:03:13.005Z,2.47
2023-04-23T13:05:40.679Z,2.58
2023-04-23T13:08:08.178Z,2.85
2023-04-23T13:10:35.812Z,2.10
2023-04-23T13:13:03.387Z,1.77
2023-04-23T13:15:30.917Z,1.73
2023-04-23T13:17:58.449Z,2.00
2023-04-23T13:20:26.554Z,1.85
2023-04-23T13:22:53.950Z,1.90
2023-04-23T13:25:21.456Z,1.85
2023-04-23T13:27:48.955Z,1.88
2023-04-23T13:30:16.627Z,2.28
2023-04-23T13:32:44.110Z,1.80
2023-04-23T13:35:11.688Z,1.85
2023-04-23T13:37:41.611Z,1.70
2023-04-23T13:40:09.519Z,1.63
2023-04-23T13:42:36.922Z,1.55
2023-04-23T13:45:06.471Z,1.60
2023-04-23T13:47:35.239Z,1.60
2023-04-23T13:50:06.927Z,1.50
2023-04-23T13:52:37.546Z,1.50
2023-04-23T13:55:05.464Z,1.95
2023-04-23T13:57:33.020Z,1.85
2023-04-23T14:00:01.007Z,2.05
2023-04-23T14:02:28.580Z,2.00
2023-04-23T14:04:59.163Z,1.65
2023-04-23T14:07:31.538Z,1.95
2023-04-23T14:09:59.063Z,1.75
2023-04-23T14:12:29.180Z,1.83
2023-04-23T14:14:57.005Z,1.70
2023-04-23T14:17:24.531Z,1.63
2023-04-23T14:19:52.204Z,1.38
2023-04-23T14:22:19.695Z,1.50
2023-04-23T14:24:51.284Z,1.27
2023-04-23T14:27:18.944Z,1.55
2023-04-23T14:29:58.096Z,1.23
2023-04-23T14:32:25.630Z,1.70
2023-04-23T14:34:53.082Z,1.65
2023-04-23T14:37:20.941Z,1.83
2023-04-23T14:39:49.818Z,1.48
2023-04-23T14:42:17.914Z,1.58
2023-04-23T14:44:45.436Z,1.60
2023-04-23T14:47:12.938Z,1.40
2023-04-23T14:49:42.284Z,1.48
2023-04-23T14:52:10.018Z,1.40
2023-04-23T14:54:37.740Z,1.25
2023-04-23T14:57:05.385Z,1.50
2023-04-23T14:59:32.920Z,1.30
2023-04-23T15:02:01.134Z,1.40
2023-04-23T15:04:28.837Z,1.50
2023-04-23T15:06:56.320Z,1.40
2023-04-23T15:09:23.853Z,1.60
2023-04-23T15:11:51.331Z,2.05
2023-04-23T15:14:21.654Z,2.03
2023-04-23T15:16:50.009Z,1.90
2023-04-23T15:19:19.231Z,1.92
2023-04-23T15:21:48.135Z,1.85
2023-04-23T15:24:16.426Z,1.90
2023-04-23T15:26:46.059Z,1.70
2023-04-23T15:29:14.095Z,1.80
2023-04-23T15:31:42.484Z,1.80
2023-04-23T15:34:29.384Z,2.00
2023-04-23T15:36:56.913Z,1.60
2023-04-23T15:39:25.430Z,2.28
2023-04-23T15:41:54.018Z,2.13
2023-04-23T15:44:21.488Z,2.20
2023-04-23T15:46:48.987Z,2.10
2023-04-23T15:49:16.700Z,2.30
2023-04-23T15:51:44.206Z,2.22
2023-04-23T15:54:11.755Z,2.15
2023-04-23T15:56:39.485Z,2.20
2023-04-23T15:59:08.035Z,2.47
2023-04-23T16:01:39.778Z,2.20
2023-04-23T16:04:10.232Z,2.42
2023-04-23T16:06:38.249Z,2.33
2023-04-23T16:09:08.958Z,2.28
2023-04-23T16:11:40.331Z,2.15
2023-04-23T16:14:09.684Z,2.50
2023-04-23T16:16:47.265Z,2.40
2023-04-23T16:19:17.181Z,2.75
2023-04-23T16:21:44.735Z,2.40
2023-04-23T16:24:12.277Z,2.25
2023-04-23T16:26:41.375Z,2.35
2023-04-23T16:29:21.302Z,2.30
2023-04-23T16:31:54.840Z,2.60
2023-04-23T16:34:25.200Z,2.53
2023-04-23T16:36:54.559Z,3.22
2023-04-23T16:39:22.358Z,2.95
2023-04-23T16:41:49.885Z,3.05
2023-04-23T16:44:17.451Z,3.60
2023-04-23T16:46:45.095Z,3.65
2023-04-23T16:49:13.761Z,3.33
2023-04-23T16:51:41.245Z,3.13
2023-04-23T16:54:08.825Z,3.40
2023-04-23T16:56:36.913Z,3.20
2023-04-23T16:59:05.181Z,2.78
2023-04-23T17:01:32.858Z,3.47
2023-04-23T17:04:00.903Z,2.90
2023-04-23T17:06:29.426Z,3.03
2023-04-23T17:08:59.197Z,3.63
2023-04-23T17:11:28.546Z,3.10
2023-04-23T17:13:57.319Z,3.25
2023-04-23T17:16:27.943Z,3.08
2023-04-23T17:18:56.475Z,3.58
2023-04-23T17:21:24.349Z,3.38
2023-04-23T17:23:51.938Z,3.42
2023-04-23T17:26:19.661Z,3.70
2023-04-23T17:28:47.204Z,3.42
2023-04-23T17:31:15.189Z,3.83
2023-04-23T17:33:47.260Z,4.03
2023-04-23T17:36:16.151Z,4.45
2023-04-23T17:38:43.738Z,4.45
2023-04-23T17:41:11.670Z,4.45
2023-04-23T17:43:39.579Z,4.57
2023-04-23T17:46:07.083Z,4.75
2023-04-23T17:48:34.629Z,5.53
2023-04-23T17:51:02.362Z,4.78
2023-04-23T17:53:29.920Z,5.10
2023-04-23T17:56:00.793Z,5.18
2023-04-23T17:58:28.930Z,4.85
2023-04-23T18:01:35.448Z,5.22
2023-04-23T18:04:04.278Z,5.30
2023-04-23T18:06:32.244Z,5.03
2023-04-23T18:08:59.795Z,4.65
2023-04-23T18:11:27.430Z,4.30
2023-04-23T18:13:55.174Z,4.40
2023-04-23T18:16:22.682Z,4.13
2023-04-23T18:18:50.269Z,3.95
2023-04-23T18:21:18.826Z,3.72
2023-04-23T18:23:46.680Z,3.80
2023-04-23T18:26:14.376Z,3.90
2023-04-23T18:28:41.937Z,3.30
2023-04-23T18:31:09.510Z,3.85
2023-04-23T18:33:43.348Z,3.50
2023-04-23T18:36:49.359Z,4.05
2023-04-23T18:39:17.101Z,4.47
2023-04-23T18:41:44.890Z,4.40
2023-04-23T18:44:13.534Z,4.45
2023-04-23T18:46:41.338Z,4.15
2023-04-23T18:49:29.824Z,3.50
2023-04-23T18:51:57.575Z,3.55
2023-04-23T18:54:26.225Z,3.33
2023-04-23T18:56:54.224Z,3.60
2023-04-23T18:59:21.687Z,3.22
2023-04-23T19:01:50.087Z,3.20
2023-04-23T19:04:17.770Z,3.25
2023-04-23T19:06:45.385Z,3.03
2023-04-23T19:09:12.975Z,2.97
2023-04-23T19:11:40.726Z,2.70
2023-04-23T19:14:08.172Z,2.70
2023-04-23T19:16:36.258Z,2.55
2023-04-23T19:19:03.783Z,2.42
2023-04-23T19:21:31.971Z,2.00
2023-04-23T19:23:59.460Z,1.90
2023-04-23T19:26:27.018Z,1.80
2023-04-23T19:28:54.470Z,1.60
2023-04-23T19:31:22.158Z,1.63
2023-04-23T19:33:51.457Z,1.40
2023-04-23T19:36:18.919Z,1.52
2023-04-23T19:38:46.790Z,1.20
2023-04-23T19:41:14.785Z,1.42
2023-04-23T19:43:42.424Z,1.55
2023-04-23T19:46:10.029Z,1.50
2023-04-23T19:48:37.629Z,1.40
2023-04-23T19:51:05.082Z,1.38
2023-04-23T19:53:32.612Z,1.50
2023-04-23T19:56:00.135Z,1.33
2023-04-23T19:58:27.741Z,1.50
2023-04-23T20:00:55.384Z,1.45
2023-04-23T20:03:23.126Z,1.00
2023-04-23T20:05:52.658Z,1.25
2023-04-23T20:08:26.409Z,1.20
2023-04-23T20:13:22.200Z,1.33
2023-04-23T20:15:50.247Z,1.52
2023-04-23T20:18:18.838Z,1.50
2023-04-23T20:20:46.296Z,1.50
2023-04-23T20:23:14.018Z,1.38
2023-04-23T20:25:41.583Z,1.10
2023-04-23T20:28:12.248Z,1.60
2023-04-23T20:30:39.855Z,1.40
2023-04-23T20:33:07.421Z,1.45
2023-04-23T20:35:35.713Z,1.30
2023-04-23T20:38:03.723Z,1.50
2023-04-23T20:40:34.803Z,1.40
2023-04-23T20:43:02.699Z,1.63
2023-04-23T20:45:30.304Z,2.03
2023-04-23T20:47:57.788Z,2.10
2023-04-23T20:50:25.401Z,1.80
2023-04-23T20:52:52.834Z,1.77
2023-04-23T20:55:20.554Z,1.63
2023-04-23T20:57:48.176Z,2.20
2023-04-23T21:00:16.226Z,2.20
2023-04-23T21:02:43.930Z,2.20
2023-04-23T21:05:12.307Z,1.80
2023-04-23T21:07:39.799Z,1.80
2023-04-23T21:10:07.703Z,1.80
2023-04-23T21:12:35.746Z,1.83
2023-04-23T21:15:03.249Z,1.98
2023-04-23T21:17:30.942Z,1.70
2023-04-23T21:19:58.557Z,1.70
2023-04-23T21:22:27.520Z,2.00
2023-04-23T21:24:54.968Z,1.70
2023-04-23T21:27:22.506Z,1.80
2023-04-23T21:29:50.081Z,1.70
2023-04-23T21:32:17.794Z,1.50
2023-04-23T21:34:45.268Z,1.60
2023-04-23T21:37:12.800Z,1.67
2023-04-23T21:39:40.329Z,1.85
2023-04-23T21:42:07.966Z,2.22
2023-04-23T21:44:36.752Z,2.25
2023-04-23T21:47:04.444Z,1.67
2023-04-23T21:49:31.884Z,1.80
2023-04-23T21:52:00.821Z,2.05
2023-04-23T21:54:28.244Z,1.80
2023-04-23T21:56:55.748Z,2.10
2023-04-23T21:59:24.725Z,2.20
2023-04-23T22:01:52.340Z,1.98
2023-04-23T22:04:20.805Z,2.10
2023-04-23T22:06:48.563Z,1.83
2023-04-23T22:09:16.198Z,2.20
2023-04-23T22:11:55.302Z,2.10
2023-04-23T22:14:28.976Z,1.67
2023-04-23T22:16:59.030Z,2.30
2023-04-23T22:19:26.628Z,2.00
2023-04-23T22:21:55.476Z,2.10
2023-04-23T22:24:23.614Z,2.10
2023-04-23T22:26:51.279Z,2.08
2023-04-23T22:29:18.812Z,2.10
2023-04-23T22:31:46.308Z,2.30
2023-04-23T22:34:13.919Z,2.60
2023-04-23T22:36:43.580Z,2.85
2023-04-23T22:39:11.151Z,2.55
2023-04-23T22:41:40.584Z,2.78
2023-04-23T22:44:09.551Z,2.80
2023-04-23T22:46:37.542Z,2.72
2023-04-23T22:49:08.250Z,4.20
2023-04-23T22:51:36.402Z,3.97
2023-04-23T22:54:03.874Z,3.72
2023-04-23T22:56:31.501Z,3.88
2023-04-23T22:58:59.036Z,3.80
2023-04-23T23:01:26.697Z,3.65
2023-04-23T23:03:54.534Z,3.42
2023-04-23T23:06:22.339Z,3.30
2023-04-23T23:08:49.864Z,2.70
2023-04-23T23:11:17.481Z,2.90
2023-04-23T23:13:45.666Z,2.40
2023-04-23T23:16:13.357Z,2.75
2023-04-23T23:18:40.844Z,2.40
2023-04-23T23:21:08.300Z,2.20
2023-04-23T23:23:36.114Z,1.85
2023-04-23T23:26:04.093Z,1.85
2023-04-23T23:28:31.559Z,1.67
2023-04-23T23:30:59.784Z,2.20
2023-04-23T23:33:27.578Z,2.30
2023-04-23T23:35:56.423Z,2.40
2023-04-23T23:38:24.074Z,2.10
2023-04-23T23:40:51.532Z,2.10
2023-04-23T23:43:19.062Z,2.10
2023-04-23T23:45:46.680Z,2.22
2023-04-23T23:48:14.500Z,1.90
2023-04-23T23:50:42.146Z,1.80
2023-04-23T23:53:09.574Z,1.75
2023-04-23T23:55:38.918Z,2.20
2023-04-23T23:58:06.501Z,1.80
